createdAt,value
2022-10-17T00:02:08.485Z,79.25
2022-10-17T00:04:37.441Z,79.27
2022-10-17T00:07:06.616Z,79.38
2022-10-17T00:09:35.550Z,79.20
2022-10-17T00:12:04.761Z,79.15
2022-10-17T00:14:33.819Z,79.44
2022-10-17T00:17:02.904Z,79.54
2022-10-17T00:19:32.029Z,79.27
2022-10-17T00:22:01.416Z,79.38
2022-10-17T00:24:32.788Z,79.62
2022-10-17T00:27:02.089Z,79.51
2022-10-17T00:29:31.044Z,79.50
2022-10-17T00:32:00.244Z,79.55
2022-10-17T00:34:30.758Z,79.50
2022-10-17T00:37:00.363Z,79.57
2022-10-17T00:39:29.267Z,79.68
2022-10-17T00:41:58.632Z,80.08
2022-10-17T00:44:33.619Z,80.69
2022-10-17T00:47:09.126Z,81.17
2022-10-17T00:49:40.251Z,81.13
2022-10-17T00:52:22.791Z,80.91
2022-10-17T00:55:07.431Z,80.88
2022-10-17T00:57:37.341Z,81.22
2022-10-17T01:00:16.840Z,81.33
2022-10-17T01:02:49.781Z,81.12
2022-10-17T01:05:25.001Z,81.73
2022-10-17T01:07:56.194Z,82.18
2022-10-17T01:10:58.726Z,82.06
2022-10-17T01:13:51.434Z,82.25
2022-10-17T01:16:30.410Z,81.60
2022-10-17T01:19:38.703Z,81.25
2022-10-17T01:22:32.311Z,81.36
2022-10-17T01:25:36.893Z,81.93
2022-10-17T01:28:34.749Z,82.16
2022-10-17T01:31:25.839Z,82.01
2022-10-17T01:34:06.868Z,82.62
2022-10-17T01:36:43.432Z,81.86
2022-10-17T01:39:45.341Z,81.61
2022-10-17T01:42:21.394Z,81.87
2022-10-17T01:45:14.455Z,82.21
2022-10-17T01:47:44.550Z,81.92
2022-10-17T01:50:25.760Z,81.86
2022-10-17T01:53:10.323Z,82.20
2022-10-17T01:55:43.792Z,82.48
2022-10-17T01:58:28.708Z,82.33
2022-10-17T02:01:03.447Z,81.95
2022-10-17T02:03:36.040Z,81.92
2022-10-17T02:06:08.302Z,82.09
2022-10-17T02:08:50.051Z,81.93
2022-10-17T02:11:28.370Z,82.28
2022-10-17T02:14:27.649Z,82.08
2022-10-17T02:17:22.110Z,81.69
2022-10-17T02:19:54.871Z,81.22
2022-10-17T02:22:32.820Z,80.28
2022-10-17T02:25:16.770Z,79.44
2022-10-17T02:27:59.690Z,79.07
2022-10-17T02:30:47.766Z,78.31
2022-10-17T02:33:33.757Z,77.85
2022-10-17T02:36:10.557Z,77.66
2022-10-17T02:38:42.619Z,77.28
2022-10-17T02:41:18.406Z,77.11
2022-10-17T02:43:51.107Z,77.65
2022-10-17T02:46:24.974Z,77.07
2022-10-17T02:49:02.249Z,76.27
2022-10-17T02:51:43.536Z,75.28
2022-10-17T02:54:30.604Z,75.07
2022-10-17T02:57:08.635Z,74.69
2022-10-17T02:59:43.317Z,74.43
2022-10-17T03:02:14.954Z,74.53
2022-10-17T03:04:49.186Z,73.89
2022-10-17T03:07:19.686Z,74.02
2022-10-17T03:09:49.511Z,73.37
2022-10-17T03:12:19.665Z,73.33
2022-10-17T03:14:49.400Z,73.71
2022-10-17T03:17:19.677Z,73.23
2022-10-17T03:19:50.481Z,73.60
2022-10-17T03:22:20.773Z,73.00
2022-10-17T03:24:50.554Z,73.51
2022-10-17T03:27:20.076Z,73.22
2022-10-17T03:29:49.701Z,73.02
2022-10-17T03:32:20.473Z,73.29
2022-10-17T03:34:50.946Z,73.50
2022-10-17T03:37:20.604Z,73.05
2022-10-17T03:39:52.114Z,72.81
2022-10-17T03:42:22.338Z,71.60
2022-10-17T03:44:52.030Z,71.21
2022-10-17T03:47:22.253Z,70.51
2022-10-17T03:49:54.794Z,69.76
2022-10-17T03:52:25.134Z,69.52
2022-10-17T03:54:54.999Z,69.68
2022-10-17T03:57:24.509Z,69.46
2022-10-17T03:59:55.911Z,68.21
2022-10-17T04:02:26.175Z,67.69
2022-10-17T04:04:56.244Z,66.59
2022-10-17T04:09:56.730Z,64.94
2022-10-17T04:12:26.806Z,64.27
2022-10-17T04:14:57.950Z,63.75
2022-10-17T04:17:28.083Z,63.89
2022-10-17T04:19:58.094Z,63.29
2022-10-17T04:22:28.775Z,63.07
2022-10-17T04:24:59.741Z,62.04
2022-10-17T04:27:37.699Z,62.14
2022-10-17T04:30:09.658Z,60.33
2022-10-17T04:32:42.063Z,59.38
2022-10-17T04:35:15.845Z,59.76
2022-10-17T04:37:49.489Z,59.43
2022-10-17T04:40:20.631Z,59.80
2022-10-17T04:42:50.726Z,58.18
2022-10-17T04:45:23.345Z,57.42
2022-10-17T04:47:57.725Z,56.94
2022-10-17T04:50:27.120Z,56.07
2022-10-17T04:53:14.479Z,56.55
2022-10-17T04:55:43.654Z,55.72
2022-10-17T04:58:12.798Z,55.44
2022-10-17T05:00:42.636Z,54.12
2022-10-17T05:03:23.806Z,54.02
2022-10-17T05:05:53.110Z,54.02
2022-10-17T05:08:22.250Z,51.75
2022-10-17T05:10:52.635Z,50.62
2022-10-17T05:13:21.832Z,50.73
2022-10-17T05:15:50.783Z,50.12
2022-10-17T05:18:20.224Z,48.97
2022-10-17T05:20:53.812Z,46.41
2022-10-17T05:57:39.298Z,42.96
2022-10-17T06:00:13.296Z,42.83
2022-10-17T06:02:43.748Z,42.01
2022-10-17T06:05:16.622Z,42.23
2022-10-17T06:07:46.580Z,41.46
2022-10-17T06:10:19.656Z,41.18
2022-10-17T06:12:49.973Z,41.47
2022-10-17T06:15:19.375Z,39.68
2022-10-17T06:17:54.897Z,39.69
2022-10-17T06:20:24.318Z,39.41
2022-10-17T06:22:53.254Z,39.54
2022-10-17T06:25:36.015Z,39.83
2022-10-17T06:28:05.853Z,39.80
2022-10-17T06:30:34.792Z,40.90
2022-10-17T06:33:04.039Z,37.75
2022-10-17T06:35:33.247Z,36.86
2022-10-17T06:38:04.665Z,38.17
2022-10-17T06:40:35.120Z,38.51
2022-10-17T06:43:04.924Z,37.92
2022-10-17T06:45:52.148Z,37.85
2022-10-17T06:48:33.929Z,36.03
2022-10-17T06:51:32.469Z,37.56
2022-10-17T06:54:04.030Z,36.90
2022-10-17T06:56:48.506Z,36.01
2022-10-17T06:59:36.285Z,35.57
2022-10-17T07:02:12.593Z,35.13
2022-10-17T07:04:41.840Z,36.30
2022-10-17T07:07:18.434Z,37.22
2022-10-17T07:09:48.136Z,37.37
2022-10-17T07:12:18.653Z,37.12
2022-10-17T07:14:48.731Z,35.74
2022-10-17T07:17:19.767Z,36.33
2022-10-17T07:19:49.742Z,35.02
2022-10-17T07:22:18.789Z,37.35
2022-10-17T07:27:25.433Z,35.79
2022-10-17T07:29:54.762Z,36.96
2022-10-17T07:32:55.362Z,35.60
2022-10-17T07:35:24.618Z,36.30
2022-10-17T07:37:53.805Z,35.40
2022-10-17T07:40:23.844Z,35.64
2022-10-17T07:42:54.662Z,37.25
2022-10-17T07:45:24.958Z,35.06
2022-10-17T07:47:58.660Z,34.24
2022-10-17T07:50:28.223Z,36.04
2022-10-17T07:53:15.464Z,36.33
2022-10-17T07:55:49.231Z,36.24
2022-10-17T07:58:18.518Z,36.86
2022-10-17T08:00:49.578Z,36.61
2022-10-17T08:03:20.628Z,36.67
2022-10-17T08:06:26.153Z,35.53
2022-10-17T08:08:55.571Z,36.42
2022-10-17T08:11:44.877Z,36.15
2022-10-17T08:14:15.353Z,37.03
2022-10-17T08:16:44.944Z,36.15
2022-10-17T08:19:14.082Z,34.98
2022-10-17T08:21:45.172Z,35.05
2022-10-17T08:24:14.412Z,35.60
2022-10-17T08:26:44.029Z,35.77
2022-10-17T08:29:17.176Z,34.42
2022-10-17T08:31:47.893Z,36.03
2022-10-17T08:34:18.348Z,35.95
2022-10-17T08:37:05.659Z,35.35
2022-10-17T08:39:35.479Z,33.17
2022-10-17T08:42:25.633Z,33.55
2022-10-17T08:45:01.244Z,33.76
2022-10-17T08:47:46.810Z,36.17
2022-10-17T08:50:37.816Z,34.86
2022-10-17T08:53:21.570Z,34.01
2022-10-17T08:55:52.538Z,35.34
2022-10-17T08:58:32.460Z,34.96
2022-10-17T09:01:23.780Z,34.71
2022-10-17T09:04:17.399Z,33.25
2022-10-17T09:07:07.273Z,34.09
2022-10-17T09:10:02.438Z,33.29
2022-10-17T09:12:39.122Z,33.28
2022-10-17T09:15:41.658Z,33.84
2022-10-17T09:18:26.897Z,35.02
2022-10-17T09:20:59.437Z,33.94
2022-10-17T09:23:56.062Z,33.56
2022-10-17T09:26:33.245Z,34.42
2022-10-17T09:29:03.284Z,35.28
2022-10-17T09:31:42.340Z,34.37
2022-10-17T09:34:12.663Z,34.16
2022-10-17T09:36:43.555Z,34.25
2022-10-17T09:39:22.815Z,34.49
2022-10-17T09:41:53.798Z,35.19
2022-10-17T09:44:26.955Z,33.68
2022-10-17T09:47:28.561Z,33.69
2022-10-17T09:49:59.105Z,35.29
2022-10-17T09:52:37.740Z,34.18
2022-10-17T09:55:09.192Z,33.93
2022-10-17T09:58:00.696Z,32.55
2022-10-17T10:00:41.903Z,34.44
2022-10-17T10:03:28.369Z,34.77
2022-10-17T10:06:19.880Z,34.41
2022-10-17T10:08:56.200Z,34.69
2022-10-17T10:11:59.373Z,35.00
2022-10-17T10:14:37.266Z,35.72
2022-10-17T10:17:08.777Z,35.16
2022-10-17T10:19:39.950Z,34.65
2022-10-17T10:22:20.634Z,36.49
2022-10-17T10:25:17.846Z,36.01
2022-10-17T10:27:48.858Z,36.15
2022-10-17T10:30:20.396Z,35.08
2022-10-17T10:32:51.438Z,35.94
2022-10-17T10:35:31.903Z,36.76
2022-10-17T10:38:03.386Z,34.86
2022-10-17T10:40:48.809Z,35.93
2022-10-17T10:43:47.889Z,37.51
2022-10-17T10:46:24.081Z,38.82
2022-10-17T10:48:57.536Z,38.54
2022-10-17T10:51:37.520Z,37.00
2022-10-17T10:54:12.006Z,37.68
2022-10-17T10:56:47.688Z,36.83
2022-10-17T10:59:20.832Z,37.50
2022-10-17T11:02:06.035Z,36.95
2022-10-17T11:04:42.176Z,38.00
2022-10-17T11:07:40.055Z,37.19
2022-10-17T11:10:32.366Z,37.61
2022-10-17T11:13:13.857Z,37.84
2022-10-17T11:16:24.713Z,38.22
2022-10-17T11:19:17.159Z,38.06
2022-10-17T11:21:59.237Z,38.06
2022-10-17T11:24:42.580Z,38.32
2022-10-17T11:27:12.693Z,37.86
2022-10-17T11:29:43.468Z,38.09
2022-10-17T11:32:18.923Z,38.79
2022-10-17T11:34:52.649Z,38.99
2022-10-17T11:37:31.037Z,39.38
2022-10-17T11:40:08.201Z,38.29
2022-10-17T11:42:54.422Z,37.79
2022-10-17T11:45:26.385Z,38.01
2022-10-17T11:48:03.731Z,38.80
2022-10-17T11:53:32.458Z,39.70
2022-10-17T11:56:03.178Z,39.79
2022-10-17T11:58:43.337Z,39.74
2022-10-17T12:01:19.042Z,41.38
2022-10-17T12:04:09.626Z,42.28
2022-10-17T12:07:17.244Z,42.83
2022-10-17T12:10:16.297Z,42.78
2022-10-17T12:12:45.287Z,45.01
2022-10-17T12:15:26.348Z,45.10
2022-10-17T12:18:04.085Z,44.31
2022-10-17T12:20:40.234Z,44.53
2022-10-17T12:23:15.008Z,44.96
2022-10-17T12:26:05.475Z,44.04
2022-10-17T12:28:46.985Z,44.23
2022-10-17T12:31:29.883Z,44.47
2022-10-17T12:34:06.443Z,44.39
2022-10-17T12:36:35.616Z,45.50
2022-10-17T12:39:04.279Z,46.71
2022-10-17T12:41:42.423Z,46.01
2022-10-17T12:44:23.234Z,44.44
2022-10-17T12:46:58.892Z,46.11
2022-10-17T12:49:43.243Z,47.32
2022-10-17T12:52:38.469Z,48.00
2022-10-17T12:55:20.246Z,47.75
2022-10-17T12:58:03.147Z,47.92
2022-10-17T13:01:25.266Z,49.47
2022-10-17T13:03:49.400Z,49.29
2022-10-17T13:06:24.962Z,49.79
2022-10-17T13:09:19.000Z,48.96
2022-10-17T13:11:51.287Z,50.25
2022-10-17T13:14:23.140Z,51.61
2022-10-17T13:16:53.738Z,50.69
2022-10-17T13:19:26.208Z,50.92
2022-10-17T13:22:06.830Z,51.73
2022-10-17T13:24:38.894Z,53.55
2022-10-17T13:27:31.901Z,53.50
2022-10-17T13:30:03.336Z,54.26
2022-10-17T13:32:41.659Z,55.16
2022-10-17T13:35:18.316Z,55.73
2022-10-17T13:37:53.690Z,55.71
2022-10-17T13:40:49.203Z,55.81
2022-10-17T13:43:22.810Z,54.98
2022-10-17T13:46:09.112Z,55.64
2022-10-17T13:48:48.252Z,55.98
2022-10-17T13:51:17.184Z,55.17
2022-10-17T13:53:46.483Z,55.14
2022-10-17T13:56:33.435Z,55.81
2022-10-17T13:59:12.830Z,54.81
2022-10-17T14:01:42.183Z,55.46
2022-10-17T14:04:19.564Z,57.01
2022-10-17T14:06:52.247Z,58.24
2022-10-17T14:09:30.074Z,58.43
2022-10-17T14:12:14.122Z,58.92
2022-10-17T14:15:09.248Z,59.59
2022-10-17T14:17:39.621Z,59.00
2022-10-17T14:23:22.099Z,59.84
2022-10-17T14:26:15.722Z,60.11
2022-10-17T14:28:47.873Z,59.53
2022-10-17T14:31:33.744Z,60.50
2022-10-17T14:34:05.744Z,60.89
2022-10-17T14:36:38.931Z,61.02
2022-10-17T14:39:20.195Z,60.71
2022-10-17T14:41:50.757Z,60.58
2022-10-17T14:44:31.331Z,61.18
2022-10-17T14:47:30.806Z,61.17
2022-10-17T14:50:26.703Z,61.27
2022-10-17T14:53:21.842Z,61.72
2022-10-17T14:56:03.414Z,62.16
2022-10-17T14:58:34.882Z,62.38
2022-10-17T15:01:03.885Z,62.39
2022-10-17T15:03:32.762Z,62.14
2022-10-17T15:06:18.946Z,62.38
2022-10-17T15:08:48.212Z,62.95
2022-10-17T15:11:17.130Z,63.28
2022-10-17T15:13:46.816Z,63.55
2022-10-17T15:16:20.859Z,63.33
2022-10-17T15:18:50.779Z,63.33
2022-10-17T15:21:40.832Z,63.21
2022-10-17T15:24:11.618Z,63.55
2022-10-17T15:26:40.614Z,63.20
2022-10-17T15:29:16.230Z,63.35
2022-10-17T15:31:45.510Z,63.31
2022-10-17T15:34:14.207Z,63.65
2022-10-17T15:36:49.606Z,63.12
2022-10-17T15:39:18.873Z,63.19
2022-10-17T15:41:49.026Z,63.17
2022-10-17T15:44:18.446Z,63.31
2022-10-17T15:46:47.473Z,64.48
2022-10-17T15:49:19.546Z,64.62
2022-10-17T15:51:51.728Z,64.88
2022-10-17T15:54:24.478Z,64.87
2022-10-17T15:56:56.192Z,65.58
2022-10-17T15:59:32.416Z,65.34
2022-10-17T16:02:01.431Z,65.75
2022-10-17T16:04:31.756Z,65.71
2022-10-17T16:07:01.091Z,66.32
2022-10-17T16:09:30.906Z,66.69
2022-10-17T16:12:02.008Z,65.90
2022-10-17T16:14:32.672Z,66.40
2022-10-17T16:17:02.014Z,65.95
2022-10-17T16:19:31.185Z,65.79
2022-10-17T16:22:04.455Z,65.80
2022-10-17T16:24:34.398Z,66.22
2022-10-17T16:27:03.200Z,66.82
2022-10-17T16:29:32.550Z,67.01
2022-10-17T16:32:01.393Z,66.71
2022-10-17T16:34:31.787Z,67.04
2022-10-17T16:37:00.930Z,67.76
2022-10-17T16:39:30.475Z,67.53
2022-10-17T16:41:59.978Z,67.55
2022-10-17T16:44:28.734Z,67.87
2022-10-17T16:46:58.609Z,67.80
2022-10-17T16:49:27.434Z,67.61
2022-10-17T16:51:56.508Z,67.75
2022-10-17T16:54:25.377Z,67.32
2022-10-17T16:56:54.571Z,67.39
2022-10-17T16:59:23.547Z,67.55
2022-10-17T17:01:52.642Z,68.12
2022-10-17T17:04:22.109Z,67.36
2022-10-17T17:06:51.100Z,68.35
2022-10-17T17:09:20.463Z,68.31
2022-10-17T17:11:49.724Z,68.28
2022-10-17T17:14:18.481Z,68.82
2022-10-17T17:16:47.691Z,68.59
2022-10-17T17:19:19.907Z,69.11
2022-10-17T17:21:51.854Z,69.01
2022-10-17T17:24:22.503Z,69.13
2022-10-17T17:26:56.866Z,69.00
2022-10-17T17:29:26.509Z,69.21
2022-10-17T17:31:55.279Z,69.39
2022-10-17T17:34:24.586Z,69.28
2022-10-17T17:36:53.324Z,69.69
2022-10-17T17:39:22.446Z,69.41
2022-10-17T17:41:51.343Z,69.52
2022-10-17T17:44:20.456Z,69.27
2022-10-17T17:46:49.368Z,69.70
2022-10-17T17:49:18.504Z,70.00
2022-10-17T17:51:47.465Z,70.06
2022-10-17T17:54:16.664Z,69.34
2022-10-17T17:56:45.777Z,70.12
2022-10-17T17:59:15.141Z,69.37
2022-10-17T18:01:44.926Z,69.06
2022-10-17T18:04:14.676Z,69.40
2022-10-17T18:06:43.628Z,68.96
2022-10-17T18:09:12.710Z,69.64
2022-10-17T18:11:41.695Z,69.10
2022-10-17T18:14:14.668Z,68.83
2022-10-17T18:16:43.851Z,68.76
2022-10-17T18:19:13.240Z,69.52
2022-10-17T18:21:42.319Z,69.76
2022-10-17T18:24:11.322Z,69.75
2022-10-17T18:26:40.458Z,70.18
2022-10-17T18:29:09.502Z,70.02
2022-10-17T18:31:38.669Z,70.80
2022-10-17T18:34:07.826Z,70.84
2022-10-17T18:36:38.504Z,70.90
2022-10-17T18:39:07.686Z,70.81
2022-10-17T18:41:36.790Z,70.89
2022-10-17T18:44:06.058Z,70.45
2022-10-17T18:46:41.347Z,70.33
2022-10-17T18:49:13.649Z,70.50
2022-10-17T18:51:43.761Z,70.59
2022-10-17T18:54:18.129Z,70.12
2022-10-17T18:56:47.943Z,70.32
2022-10-17T18:59:17.342Z,70.15
2022-10-17T19:01:46.745Z,70.77
2022-10-17T19:04:16.222Z,70.14
2022-10-17T19:06:45.676Z,70.11
2022-10-17T19:09:16.083Z,69.90
2022-10-17T19:11:45.522Z,69.41
2022-10-17T19:14:15.160Z,68.75
2022-10-17T19:16:47.891Z,69.08
2022-10-17T19:19:18.922Z,68.83
2022-10-17T19:21:48.332Z,69.37
2022-10-17T19:24:23.821Z,69.67
2022-10-17T19:26:54.889Z,70.23
2022-10-17T19:29:26.853Z,69.77
2022-10-17T19:34:30.354Z,68.77
2022-10-17T19:36:59.692Z,69.11
2022-10-17T19:39:29.207Z,68.55
2022-10-17T19:41:59.379Z,69.69
2022-10-17T19:44:29.236Z,70.15
2022-10-17T19:46:57.974Z,69.83
2022-10-17T19:49:27.088Z,69.78
2022-10-17T19:51:55.920Z,69.35
2022-10-17T19:54:25.427Z,69.67
2022-10-17T19:56:55.470Z,70.01
2022-10-17T20:01:54.519Z,68.98
2022-10-17T20:04:25.208Z,70.10
2022-10-17T20:06:54.993Z,70.44
2022-10-17T20:09:26.550Z,69.84
2022-10-17T20:11:55.827Z,69.14
2022-10-17T20:14:24.626Z,69.23
2022-10-17T20:16:54.839Z,69.66
2022-10-17T20:19:23.716Z,70.35
2022-10-17T20:21:52.855Z,70.33
2022-10-17T20:24:21.662Z,70.35
2022-10-17T20:26:50.841Z,70.83
2022-10-17T20:29:22.674Z,72.18
2022-10-17T20:31:51.997Z,72.26
2022-10-17T20:34:21.233Z,72.10
2022-10-17T20:36:50.718Z,71.10
2022-10-17T20:39:21.366Z,71.04
2022-10-17T20:41:50.551Z,71.82
2022-10-17T20:44:19.754Z,71.42
2022-10-17T20:47:01.088Z,71.74
2022-10-17T20:49:31.474Z,71.67
2022-10-17T20:52:01.810Z,72.07
2022-10-17T20:54:31.174Z,72.21
2022-10-17T20:57:02.630Z,72.67
2022-10-17T20:59:37.057Z,72.29
2022-10-17T21:02:07.002Z,72.76
2022-10-17T21:04:51.474Z,72.21
2022-10-17T21:07:20.676Z,72.13
2022-10-17T21:09:49.676Z,72.21
2022-10-17T21:12:26.244Z,72.40
2022-10-17T21:15:06.832Z,72.65
2022-10-17T21:17:35.779Z,72.64
2022-10-17T21:20:05.359Z,72.18
2022-10-17T21:22:37.359Z,72.98
2022-10-17T21:25:06.754Z,73.10
2022-10-17T21:27:35.868Z,73.39
2022-10-17T21:30:05.222Z,72.75
2022-10-17T21:32:51.098Z,73.26
2022-10-17T21:35:21.109Z,73.01
2022-10-17T21:37:50.070Z,72.96
2022-10-17T21:40:19.204Z,73.23
2022-10-17T21:42:48.024Z,74.42
2022-10-17T21:45:25.374Z,74.07
2022-10-17T21:48:12.287Z,73.94
2022-10-17T21:50:42.441Z,73.93
2022-10-17T21:53:11.499Z,74.04
2022-10-17T21:55:40.659Z,74.40
2022-10-17T21:58:09.497Z,74.51
2022-10-17T22:00:38.672Z,73.70
2022-10-17T22:03:08.362Z,73.93
2022-10-17T22:05:37.494Z,74.25
2022-10-17T22:08:06.628Z,74.53
2022-10-17T22:10:38.617Z,74.74
2022-10-17T22:13:07.759Z,74.13
2022-10-17T22:15:36.538Z,74.50
2022-10-17T22:18:06.357Z,74.67
2022-10-17T22:20:36.747Z,74.88
2022-10-17T22:23:05.805Z,75.09
2022-10-17T22:25:34.787Z,74.71
2022-10-17T22:28:03.932Z,74.23
2022-10-17T22:30:32.698Z,73.73
2022-10-17T22:33:01.745Z,73.47
2022-10-17T22:35:30.565Z,73.52
2022-10-17T22:37:59.673Z,74.63
2022-10-17T22:40:28.729Z,74.85
2022-10-17T22:42:58.466Z,74.42
2022-10-17T22:45:27.368Z,74.46
2022-10-17T22:47:56.431Z,75.00
2022-10-17T22:50:26.182Z,74.72
2022-10-17T22:52:55.478Z,74.97
2022-10-17T22:55:24.508Z,74.98
2022-10-17T22:57:53.740Z,74.42
2022-10-17T23:00:22.594Z,74.47
2022-10-17T23:02:55.730Z,74.69
2022-10-17T23:05:24.715Z,74.76
2022-10-17T23:07:53.591Z,75.20
2022-10-17T23:10:23.125Z,75.84
2022-10-17T23:12:52.078Z,75.18
2022-10-17T23:15:21.395Z,74.90
2022-10-17T23:17:50.596Z,74.85
2022-10-17T23:20:19.872Z,74.43
2022-10-17T23:22:48.753Z,74.71
2022-10-17T23:25:18.552Z,74.87
2022-10-17T23:27:47.415Z,74.38
2022-10-17T23:30:17.386Z,74.75
2022-10-17T23:32:46.660Z,74.20
2022-10-17T23:35:15.846Z,73.77
2022-10-17T23:37:44.641Z,75.59
2022-10-17T23:40:14.489Z,75.07
2022-10-17T23:42:43.751Z,75.35
2022-10-17T23:45:13.461Z,74.88
2022-10-17T23:47:42.648Z,74.66
2022-10-17T23:50:11.838Z,75.05
2022-10-17T23:52:40.933Z,74.92
2022-10-17T23:55:10.765Z,75.01
2022-10-17T23:57:39.529Z,75.60
